Private Wetterstation Nrnberg - Katzwang
Wetterdaten: Januar 2013
Datum Temp. A. Feuchte A. Luftdruck Regen Wind Richtung Taupunkt Windchill Windben
01.01.2013 4,6 C 82 % 1008 hPa 0,5 l/m 7,4 km/h N-NO 1,7 C 2,6 C 8,4 km/h
02.01.2013 2,6 C 81 % 1024 hPa 0,0 l/m 0,0 km/h W-NW -0,5 C 2,6 C 1,0 km/h
03.01.2013 4,7 C 84 % 1030 hPa 1,0 l/m 5,5 km/h W-NW 2,2 C 4,3 C 6,5 km/h
04.01.2013 7,7 C 86 % 1029 hPa 4,1 l/m 4,8 km/h W-NW 5,4 C 7,5 C 5,8 km/h
05.01.2013 6,6 C 86 % 1027 hPa 8,8 l/m 0,0 km/h W-NW 4,5 C 6,6 C 1,0 km/h
06.01.2013 6,2 C 86 % 1024 hPa 1,6 l/m 4,6 km/h W-NW 3,9 C 5,2 C 5,6 km/h
07.01.2013 5,2 C 85 % 1025 hPa 0,0 l/m 4,6 km/h W-NW 2,8 C 4,1 C 5,6 km/h
08.01.2013 3,6 C 86 % 1022 hPa 10,9 l/m 1,4 km/h W-NW 1,5 C 3,6 C 2,4 km/h
09.01.2013 3,8 C 85 % 1016 hPa 1,6 l/m 1,4 km/h W-NW 1,6 C 3,8 C 2,3 km/h
10.01.2013 2,1 C 85 % 1008 hPa 0,5 l/m 2,4 km/h W-NW -0,1 C 1,9 C 3,4 km/h
11.01.2013 -0,5 C 78 % 1012 hPa 0,5 l/m 1,9 km/h W-NW -3,8 C -0,7 C 2,9 km/h
12.01.2013 -2,3 C 76 % 1014 hPa 0,0 l/m 0,0 km/h O-NO -5,9 C -2,3 C 1,0 km/h
13.01.2013 -3,3 C 77 % 1012 hPa 0,0 l/m 1,0 km/h O -6,7 C -3,3 C 2,0 km/h
14.01.2013 -1,7 C 78 % 1009 hPa 0,0 l/m 3,8 km/h O -4,9 C -1,8 C 4,8 km/h
15.01.2013 -1,9 C 81 % 1004 hPa 0,0 l/m 0,0 km/h O-NO -4,8 C -1,9 C 1,0 km/h
16.01.2013 -1,8 C 85 % 1003 hPa 0,0 l/m 1,9 km/h N-NO -4,0 C -1,8 C 2,9 km/h
17.01.2013 -2,8 C 85 % 1008 hPa 4,1 l/m 0,5 km/h N -5,0 C -2,8 C 1,5 km/h
18.01.2013 -2,8 C 84 % 1004 hPa 0,5 l/m 3,4 km/h O -5,1 C -2,8 C 4,4 km/h
19.01.2013 -4,7 C 84 % 995 hPa 0,0 l/m 4,1 km/h O -7,0 C -5,8 C 5,1 km/h
20.01.2013 -3,1 C 83 % 993 hPa 0,0 l/m 1,4 km/h NO -5,6 C -3,1 C 2,4 km/h
21.01.2013 -1,3 C 84 % 996 hPa 0,5 l/m 0,0 km/h O -3,6 C -1,3 C 1,0 km/h
22.01.2013 0,4 C 86 % 1002 hPa 0,0 l/m 0,0 km/h O -1,7 C 0,4 C 1,0 km/h
23.01.2013 1,0 C 85 % 1004 hPa 0,0 l/m 0,3 km/h N-NO -1,3 C 1,0 C 1,4 km/h
24.01.2013 -2,5 C 83 % 1009 hPa 0,0 l/m 1,9 km/h N-NO -5,0 C -2,8 C 2,9 km/h
25.01.2013 -3,7 C 82 % 1014 hPa 0,0 l/m 0,9 km/h NO -6,4 C -3,7 C 1,9 km/h
26.01.2013 -4,5 C 81 % 1012 hPa 0,0 l/m 1,6 km/h O -7,3 C -4,5 C 2,6 km/h
27.01.2013 0,4 C 82 % 1006 hPa 0,0 l/m 4,6 km/h NO -2,3 C 0,4 C 5,6 km/h
28.01.2013 2,6 C 84 % 1014 hPa 0,0 l/m 8,2 km/h W-NW 0,2 C -1,0 C 9,2 km/h
29.01.2013 5,4 C 85 % 1012 hPa 0,0 l/m 5,8 km/h W-NW 3,1 C 5,0 C 6,8 km/h
30.01.2013 9,8 C 83 % 1010 hPa 7,9 l/m 4,8 km/h W-NW 6,9 C 8,8 C 5,8 km/h
31.01.2013 6,8 C 75 % 1012 hPa 0,0 l/m 12,0 km/h W-NW 2,6 C 2,8 C 23,2 km/h
Min-Datum 19.01.13 31.01.13 20.01.13 13 Tage 01.01.13 - 19.01.13 26.01.13 01.01.13
Min-Zeit 23:10 17:00 14:30 - 00:10 - 23:10 04:05 00:10
Minimum -7,2 C 55 % 991 hPa - 0,0 km/h - -9,4 C -18,4 C 1,0 km/h
Max-Datum 30.01.13 02.01.13 03.01.13 08.01.13 31.01.13 - 30.01.13 30.01.13 31.01.13
Max-Zeit 14:00 09:50 23:40 22:40 04:50 - 14:00 15:10 18:50
Maximum 13,8 C 86 % 1032 hPa 10,9 l/m 33,5 km/h
W-NW
- 10,2 C 13,7 C 66,7 km/h
W-NW
Durchschnitt 1,2 C 83 % 1012 hPa #42,6 l/m 2,9 km/h W-NW -1,4 C 0,7 C 4,2 km/h

Durchschnitt Minimum Temp.-1,3 C
Durchschnitt Maximum Temp.3,3 C